sensor_id;sensor_type;location;lat;lon;timestamp;P1;durP1;ratioP1;P2;durP2;ratioP2
67867;SDS011;54672;46.096;14.470;2022-07-17T00:00:39;8.13;;;5.40;;
67867;SDS011;54672;46.096;14.470;2022-07-17T00:03:14;8.77;;;5.82;;
67867;SDS011;54672;46.096;14.470;2022-07-17T00:05:41;9.68;;;5.55;;
67867;SDS011;54672;46.096;14.470;2022-07-17T00:08:07;7.22;;;5.47;;
67867;SDS011;54672;46.096;14.470;2022-07-17T00:10:38;7.68;;;5.53;;
67867;SDS011;54672;46.096;14.470;2022-07-17T00:13:05;7.72;;;5.20;;
67867;SDS011;54672;46.096;14.470;2022-07-17T00:15:31;8.48;;;5.35;;
67867;SDS011;54672;46.096;14.470;2022-07-17T00:17:57;6.35;;;4.85;;
67867;SDS011;54672;46.096;14.470;2022-07-17T00:20:23;9.02;;;5.18;;
67867;SDS011;54672;46.096;14.470;2022-07-17T00:22:50;7.70;;;5.90;;
67867;SDS011;54672;46.096;14.470;2022-07-17T00:25:16;7.95;;;5.80;;
67867;SDS011;54672;46.096;14.470;2022-07-17T00:27:41;8.43;;;5.80;;
67867;SDS011;54672;46.096;14.470;2022-07-17T00:30:07;9.70;;;6.55;;
67867;SDS011;54672;46.096;14.470;2022-07-17T00:32:33;7.15;;;5.10;;
67867;SDS011;54672;46.096;14.470;2022-07-17T00:34:58;6.63;;;5.32;;
67867;SDS011;54672;46.096;14.470;2022-07-17T00:37:24;6.93;;;5.72;;
67867;SDS011;54672;46.096;14.470;2022-07-17T00:39:49;7.40;;;5.03;;
67867;SDS011;54672;46.096;14.470;2022-07-17T00:42:15;7.00;;;5.53;;
67867;SDS011;54672;46.096;14.470;2022-07-17T00:44:41;7.18;;;5.25;;
67867;SDS011;54672;46.096;14.470;2022-07-17T00:47:15;6.80;;;5.20;;
67867;SDS011;54672;46.096;14.470;2022-07-17T00:49:43;7.68;;;5.18;;
67867;SDS011;54672;46.096;14.470;2022-07-17T00:52:09;9.23;;;5.70;;
67867;SDS011;54672;46.096;14.470;2022-07-17T00:54:39;6.10;;;4.55;;
67867;SDS011;54672;46.096;14.470;2022-07-17T00:57:06;6.97;;;5.50;;
67867;SDS011;54672;46.096;14.470;2022-07-17T00:59:34;8.90;;;6.00;;
67867;SDS011;54672;46.096;14.470;2022-07-17T01:02:02;9.77;;;5.63;;
67867;SDS011;54672;46.096;14.470;2022-07-17T01:04:32;9.13;;;4.90;;
67867;SDS011;54672;46.096;14.470;2022-07-17T01:06:59;6.40;;;4.55;;
67867;SDS011;54672;46.096;14.470;2022-07-17T01:09:26;7.30;;;5.10;;
67867;SDS011;54672;46.096;14.470;2022-07-17T01:11:52;6.97;;;4.95;;
67867;SDS011;54672;46.096;14.470;2022-07-17T01:14:18;6.07;;;4.65;;
67867;SDS011;54672;46.096;14.470;2022-07-17T01:16:44;8.13;;;5.00;;
67867;SDS011;54672;46.096;14.470;2022-07-17T01:19:10;6.90;;;5.00;;
67867;SDS011;54672;46.096;14.470;2022-07-17T01:21:46;6.82;;;4.78;;
67867;SDS011;54672;46.096;14.470;2022-07-17T01:24:14;7.20;;;4.93;;
67867;SDS011;54672;46.096;14.470;2022-07-17T01:26:41;6.90;;;4.55;;
67867;SDS011;54672;46.096;14.470;2022-07-17T01:29:11;7.65;;;5.65;;
67867;SDS011;54672;46.096;14.470;2022-07-17T01:31:38;7.82;;;4.65;;
67867;SDS011;54672;46.096;14.470;2022-07-17T01:34:05;11.27;;;4.82;;
67867;SDS011;54672;46.096;14.470;2022-07-17T01:36:31;6.25;;;4.95;;
67867;SDS011;54672;46.096;14.470;2022-07-17T01:38:57;9.63;;;5.15;;
67867;SDS011;54672;46.096;14.470;2022-07-17T01:41:23;5.75;;;4.70;;
67867;SDS011;54672;46.096;14.470;2022-07-17T01:43:48;8.02;;;5.22;;
67867;SDS011;54672;46.096;14.470;2022-07-17T01:46:14;7.32;;;5.22;;
67867;SDS011;54672;46.096;14.470;2022-07-17T01:48:39;7.55;;;5.35;;
67867;SDS011;54672;46.096;14.470;2022-07-17T01:51:04;6.53;;;4.97;;
67867;SDS011;54672;46.096;14.470;2022-07-17T01:53:30;7.63;;;4.75;;
67867;SDS011;54672;46.096;14.470;2022-07-17T01:55:56;8.82;;;4.78;;
67867;SDS011;54672;46.096;14.470;2022-07-17T01:58:21;6.85;;;4.90;;
67867;SDS011;54672;46.096;14.470;2022-07-17T02:00:46;7.03;;;5.10;;
67867;SDS011;54672;46.096;14.470;2022-07-17T02:03:12;7.97;;;4.85;;
67867;SDS011;54672;46.096;14.470;2022-07-17T02:05:37;8.05;;;5.28;;
67867;SDS011;54672;46.096;14.470;2022-07-17T02:08:03;5.95;;;4.47;;
67867;SDS011;54672;46.096;14.470;2022-07-17T02:10:29;9.00;;;4.60;;
67867;SDS011;54672;46.096;14.470;2022-07-17T02:12:54;8.25;;;4.65;;
67867;SDS011;54672;46.096;14.470;2022-07-17T02:15:20;7.97;;;5.40;;
67867;SDS011;54672;46.096;14.470;2022-07-17T02:17:45;8.25;;;5.18;;
67867;SDS011;54672;46.096;14.470;2022-07-17T02:20:11;8.07;;;5.38;;
67867;SDS011;54672;46.096;14.470;2022-07-17T02:22:37;5.70;;;4.57;;
67867;SDS011;54672;46.096;14.470;2022-07-17T02:25:04;8.90;;;5.30;;
67867;SDS011;54672;46.096;14.470;2022-07-17T02:27:31;7.10;;;4.78;;
67867;SDS011;54672;46.096;14.470;2022-07-17T02:29:57;6.03;;;4.63;;
67867;SDS011;54672;46.096;14.470;2022-07-17T02:32:22;6.85;;;4.72;;
67867;SDS011;54672;46.096;14.470;2022-07-17T02:34:48;5.97;;;4.72;;
67867;SDS011;54672;46.096;14.470;2022-07-17T02:37:13;8.10;;;4.85;;
67867;SDS011;54672;46.096;14.470;2022-07-17T02:39:39;6.38;;;4.53;;
67867;SDS011;54672;46.096;14.470;2022-07-17T02:42:17;6.40;;;4.88;;
67867;SDS011;54672;46.096;14.470;2022-07-17T02:44:44;6.82;;;5.25;;
67867;SDS011;54672;46.096;14.470;2022-07-17T02:47:09;9.10;;;5.28;;
67867;SDS011;54672;46.096;14.470;2022-07-17T02:49:35;7.55;;;5.30;;
67867;SDS011;54672;46.096;14.470;2022-07-17T02:52:00;6.82;;;5.05;;
67867;SDS011;54672;46.096;14.470;2022-07-17T02:54:25;6.63;;;5.00;;
67867;SDS011;54672;46.096;14.470;2022-07-17T02:56:51;6.70;;;5.20;;
67867;SDS011;54672;46.096;14.470;2022-07-17T02:59:16;6.65;;;5.30;;
67867;SDS011;54672;46.096;14.470;2022-07-17T03:01:42;5.88;;;4.68;;
67867;SDS011;54672;46.096;14.470;2022-07-17T03:04:07;6.00;;;4.72;;
67867;SDS011;54672;46.096;14.470;2022-07-17T03:06:32;8.65;;;5.45;;
67867;SDS011;54672;46.096;14.470;2022-07-17T03:08:58;7.20;;;5.38;;
67867;SDS011;54672;46.096;14.470;2022-07-17T03:11:23;8.32;;;5.40;;
67867;SDS011;54672;46.096;14.470;2022-07-17T03:13:48;8.00;;;5.40;;
67867;SDS011;54672;46.096;14.470;2022-07-17T03:16:14;8.48;;;5.55;;
67867;SDS011;54672;46.096;14.470;2022-07-17T03:18:39;8.68;;;5.57;;
67867;SDS011;54672;46.096;14.470;2022-07-17T03:21:05;8.82;;;5.78;;
67867;SDS011;54672;46.096;14.470;2022-07-17T03:23:30;9.20;;;5.60;;
67867;SDS011;54672;46.096;14.470;2022-07-17T03:25:56;8.32;;;5.72;;
67867;SDS011;54672;46.096;14.470;2022-07-17T03:28:22;8.45;;;5.82;;
67867;SDS011;54672;46.096;14.470;2022-07-17T03:30:47;8.75;;;5.60;;
67867;SDS011;54672;46.096;14.470;2022-07-17T03:33:12;7.88;;;5.53;;
67867;SDS011;54672;46.096;14.470;2022-07-17T03:35:38;8.52;;;5.40;;
67867;SDS011;54672;46.096;14.470;2022-07-17T03:38:03;10.00;;;5.80;;
67867;SDS011;54672;46.096;14.470;2022-07-17T03:40:28;8.52;;;5.97;;
67867;SDS011;54672;46.096;14.470;2022-07-17T03:42:55;12.75;;;6.10;;
67867;SDS011;54672;46.096;14.470;2022-07-17T03:45:20;9.48;;;5.82;;
67867;SDS011;54672;46.096;14.470;2022-07-17T03:47:45;8.80;;;6.15;;
67867;SDS011;54672;46.096;14.470;2022-07-17T03:50:11;11.52;;;6.88;;
67867;SDS011;54672;46.096;14.470;2022-07-17T03:52:36;10.82;;;6.80;;
67867;SDS011;54672;46.096;14.470;2022-07-17T03:55:02;12.05;;;6.57;;
67867;SDS011;54672;46.096;14.470;2022-07-17T03:57:27;10.80;;;6.93;;
67867;SDS011;54672;46.096;14.470;2022-07-17T03:59:53;11.13;;;6.68;;
67867;SDS011;54672;46.096;14.470;2022-07-17T04:02:19;12.10;;;6.55;;
67867;SDS011;54672;46.096;14.470;2022-07-17T04:04:45;12.90;;;6.75;;
67867;SDS011;54672;46.096;14.470;2022-07-17T04:07:10;10.23;;;6.47;;
67867;SDS011;54672;46.096;14.470;2022-07-17T04:09:52;8.30;;;5.93;;
67867;SDS011;54672;46.096;14.470;2022-07-17T04:12:18;7.70;;;5.40;;
67867;SDS011;54672;46.096;14.470;2022-07-17T04:14:44;7.85;;;5.90;;
67867;SDS011;54672;46.096;14.470;2022-07-17T04:17:09;6.68;;;5.22;;
67867;SDS011;54672;46.096;14.470;2022-07-17T04:19:35;6.00;;;4.93;;
67867;SDS011;54672;46.096;14.470;2022-07-17T04:22:00;8.90;;;5.10;;
67867;SDS011;54672;46.096;14.470;2022-07-17T04:24:25;7.50;;;5.30;;
67867;SDS011;54672;46.096;14.470;2022-07-17T04:26:51;6.95;;;5.10;;
67867;SDS011;54672;46.096;14.470;2022-07-17T04:29:16;6.88;;;4.50;;
67867;SDS011;54672;46.096;14.470;2022-07-17T04:31:42;7.10;;;4.53;;
67867;SDS011;54672;46.096;14.470;2022-07-17T04:34:07;6.00;;;4.50;;
67867;SDS011;54672;46.096;14.470;2022-07-17T04:36:32;7.32;;;5.18;;
67867;SDS011;54672;46.096;14.470;2022-07-17T04:38:58;7.80;;;5.38;;
67867;SDS011;54672;46.096;14.470;2022-07-17T04:41:23;8.45;;;5.55;;
67867;SDS011;54672;46.096;14.470;2022-07-17T04:43:48;7.88;;;4.95;;
67867;SDS011;54672;46.096;14.470;2022-07-17T04:46:14;6.40;;;5.03;;
67867;SDS011;54672;46.096;14.470;2022-07-17T04:48:39;7.55;;;4.68;;
67867;SDS011;54672;46.096;14.470;2022-07-17T04:51:05;5.30;;;4.00;;
67867;SDS011;54672;46.096;14.470;2022-07-17T04:53:30;6.32;;;3.90;;
67867;SDS011;54672;46.096;14.470;2022-07-17T04:55:56;5.68;;;2.65;;
67867;SDS011;54672;46.096;14.470;2022-07-17T04:58:21;4.28;;;2.38;;
67867;SDS011;54672;46.096;14.470;2022-07-17T05:00:47;5.53;;;2.40;;
67867;SDS011;54672;46.096;14.470;2022-07-17T05:03:12;3.92;;;2.17;;
67867;SDS011;54672;46.096;14.470;2022-07-17T05:05:38;3.63;;;2.20;;
67867;SDS011;54672;46.096;14.470;2022-07-17T05:08:05;3.70;;;2.20;;
67867;SDS011;54672;46.096;14.470;2022-07-17T05:10:31;4.13;;;2.00;;
67867;SDS011;54672;46.096;14.470;2022-07-17T05:12:56;4.15;;;2.33;;
67867;SDS011;54672;46.096;14.470;2022-07-17T05:15:21;3.28;;;1.73;;
67867;SDS011;54672;46.096;14.470;2022-07-17T05:17:47;5.13;;;2.03;;
67867;SDS011;54672;46.096;14.470;2022-07-17T05:20:12;3.80;;;2.42;;
67867;SDS011;54672;46.096;14.470;2022-07-17T05:22:38;4.35;;;1.90;;
67867;SDS011;54672;46.096;14.470;2022-07-17T05:25:03;2.75;;;1.90;;
67867;SDS011;54672;46.096;14.470;2022-07-17T05:27:29;4.45;;;2.08;;
67867;SDS011;54672;46.096;14.470;2022-07-17T05:29:55;3.38;;;1.80;;
67867;SDS011;54672;46.096;14.470;2022-07-17T05:32:21;3.10;;;1.80;;
67867;SDS011;54672;46.096;14.470;2022-07-17T05:34:46;4.68;;;1.83;;
67867;SDS011;54672;46.096;14.470;2022-07-17T05:37:12;2.60;;;1.70;;
67867;SDS011;54672;46.096;14.470;2022-07-17T05:39:37;3.17;;;1.92;;
67867;SDS011;54672;46.096;14.470;2022-07-17T05:42:04;2.88;;;1.52;;
67867;SDS011;54672;46.096;14.470;2022-07-17T05:44:30;3.40;;;1.70;;
67867;SDS011;54672;46.096;14.470;2022-07-17T05:46:56;2.13;;;1.67;;
67867;SDS011;54672;46.096;14.470;2022-07-17T05:49:21;3.30;;;1.60;;
67867;SDS011;54672;46.096;14.470;2022-07-17T05:51:46;2.75;;;1.85;;
67867;SDS011;54672;46.096;14.470;2022-07-17T05:54:12;2.10;;;1.48;;
67867;SDS011;54672;46.096;14.470;2022-07-17T05:56:37;3.45;;;1.52;;
67867;SDS011;54672;46.096;14.470;2022-07-17T05:59:03;5.63;;;1.80;;
67867;SDS011;54672;46.096;14.470;2022-07-17T06:01:29;3.60;;;1.67;;
67867;SDS011;54672;46.096;14.470;2022-07-17T06:03:54;3.00;;;1.70;;
67867;SDS011;54672;46.096;14.470;2022-07-17T06:06:19;4.68;;;1.73;;
67867;SDS011;54672;46.096;14.470;2022-07-17T06:08:46;2.70;;;1.42;;
67867;SDS011;54672;46.096;14.470;2022-07-17T06:11:12;1.50;;;1.30;;
67867;SDS011;54672;46.096;14.470;2022-07-17T06:13:37;2.63;;;1.50;;
67867;SDS011;54672;46.096;14.470;2022-07-17T06:16:03;1.95;;;1.67;;
67867;SDS011;54672;46.096;14.470;2022-07-17T06:18:29;2.15;;;1.60;;
67867;SDS011;54672;46.096;14.470;2022-07-17T06:20:54;2.53;;;1.38;;
67867;SDS011;54672;46.096;14.470;2022-07-17T06:23:20;4.82;;;1.63;;
67867;SDS011;54672;46.096;14.470;2022-07-17T06:25:45;2.35;;;1.48;;
67867;SDS011;54672;46.096;14.470;2022-07-17T06:28:11;2.05;;;1.55;;
67867;SDS011;54672;46.096;14.470;2022-07-17T06:30:36;3.83;;;1.70;;
67867;SDS011;54672;46.096;14.470;2022-07-17T06:33:02;4.07;;;1.50;;
67867;SDS011;54672;46.096;14.470;2022-07-17T06:35:28;4.28;;;1.92;;
67867;SDS011;54672;46.096;14.470;2022-07-17T06:37:55;2.90;;;1.50;;
67867;SDS011;54672;46.096;14.470;2022-07-17T06:40:21;2.30;;;1.48;;
67867;SDS011;54672;46.096;14.470;2022-07-17T06:42:47;5.80;;;1.88;;
67867;SDS011;54672;46.096;14.470;2022-07-17T06:45:13;4.13;;;1.50;;
67867;SDS011;54672;46.096;14.470;2022-07-17T06:47:39;1.67;;;1.42;;
67867;SDS011;54672;46.096;14.470;2022-07-17T06:50:04;3.55;;;1.77;;
67867;SDS011;54672;46.096;14.470;2022-07-17T06:52:30;2.40;;;1.80;;
67867;SDS011;54672;46.096;14.470;2022-07-17T06:54:55;2.35;;;1.70;;
67867;SDS011;54672;46.096;14.470;2022-07-17T06:57:21;3.15;;;1.83;;
67867;SDS011;54672;46.096;14.470;2022-07-17T06:59:46;2.13;;;1.63;;
67867;SDS011;54672;46.096;14.470;2022-07-17T07:02:12;1.45;;;1.30;;
67867;SDS011;54672;46.096;14.470;2022-07-17T07:04:37;2.75;;;1.60;;
67867;SDS011;54672;46.096;14.470;2022-07-17T07:07:02;3.28;;;1.60;;
67867;SDS011;54672;46.096;14.470;2022-07-17T07:09:28;2.50;;;1.60;;
67867;SDS011;54672;46.096;14.470;2022-07-17T07:11:53;5.05;;;1.67;;
67867;SDS011;54672;46.096;14.470;2022-07-17T07:14:19;1.83;;;1.60;;
67867;SDS011;54672;46.096;14.470;2022-07-17T07:16:45;2.40;;;1.52;;
67867;SDS011;54672;46.096;14.470;2022-07-17T07:19:11;4.80;;;1.70;;
67867;SDS011;54672;46.096;14.470;2022-07-17T07:21:36;7.95;;;1.90;;
67867;SDS011;54672;46.096;14.470;2022-07-17T07:24:03;2.08;;;1.50;;
67867;SDS011;54672;46.096;14.470;2022-07-17T07:26:28;2.33;;;1.70;;
67867;SDS011;54672;46.096;14.470;2022-07-17T07:28:54;1.90;;;1.55;;
67867;SDS011;54672;46.096;14.470;2022-07-17T07:31:20;2.10;;;1.60;;
67867;SDS011;54672;46.096;14.470;2022-07-17T07:33:46;3.15;;;1.77;;
67867;SDS011;54672;46.096;14.470;2022-07-17T07:36:11;2.42;;;1.60;;
67867;SDS011;54672;46.096;14.470;2022-07-17T07:41:46;2.53;;;1.77;;
67867;SDS011;54672;46.096;14.470;2022-07-17T07:44:12;2.85;;;1.40;;
67867;SDS011;54672;46.096;14.470;2022-07-17T07:46:37;2.90;;;1.60;;
67867;SDS011;54672;46.096;14.470;2022-07-17T07:49:03;1.77;;;1.50;;
67867;SDS011;54672;46.096;14.470;2022-07-17T07:51:28;2.97;;;1.70;;
67867;SDS011;54672;46.096;14.470;2022-07-17T07:53:54;3.28;;;2.00;;
67867;SDS011;54672;46.096;14.470;2022-07-17T07:56:20;2.30;;;1.63;;
67867;SDS011;54672;46.096;14.470;2022-07-17T07:58:45;3.40;;;1.80;;
67867;SDS011;54672;46.096;14.470;2022-07-17T08:01:11;2.25;;;1.58;;
67867;SDS011;54672;46.096;14.470;2022-07-17T08:03:36;1.85;;;1.52;;
67867;SDS011;54672;46.096;14.470;2022-07-17T08:06:02;2.08;;;1.48;;
67867;SDS011;54672;46.096;14.470;2022-07-17T08:08:27;3.95;;;1.70;;
67867;SDS011;54672;46.096;14.470;2022-07-17T08:10:53;1.88;;;1.40;;
67867;SDS011;54672;46.096;14.470;2022-07-17T08:13:18;2.47;;;1.60;;
67867;SDS011;54672;46.096;14.470;2022-07-17T08:15:44;4.28;;;1.70;;
67867;SDS011;54672;46.096;14.470;2022-07-17T08:18:09;2.67;;;1.67;;
67867;SDS011;54672;46.096;14.470;2022-07-17T08:20:35;6.60;;;1.77;;
67867;SDS011;54672;46.096;14.470;2022-07-17T08:23:00;3.30;;;1.40;;
67867;SDS011;54672;46.096;14.470;2022-07-17T08:25:26;2.53;;;1.65;;
67867;SDS011;54672;46.096;14.470;2022-07-17T08:27:51;3.97;;;1.50;;
67867;SDS011;54672;46.096;14.470;2022-07-17T08:30:17;2.33;;;1.55;;
67867;SDS011;54672;46.096;14.470;2022-07-17T08:32:42;3.58;;;1.70;;
67867;SDS011;54672;46.096;14.470;2022-07-17T08:35:08;2.13;;;1.60;;
67867;SDS011;54672;46.096;14.470;2022-07-17T08:37:47;6.95;;;1.60;;
67867;SDS011;54672;46.096;14.470;2022-07-17T08:40:16;2.90;;;1.20;;
67867;SDS011;54672;46.096;14.470;2022-07-17T08:42:48;1.90;;;1.40;;
67867;SDS011;54672;46.096;14.470;2022-07-17T08:45:15;2.20;;;1.60;;
67867;SDS011;54672;46.096;14.470;2022-07-17T08:47:41;3.10;;;1.60;;
67867;SDS011;54672;46.096;14.470;2022-07-17T08:50:07;3.60;;;1.80;;
67867;SDS011;54672;46.096;14.470;2022-07-17T08:52:35;3.22;;;1.35;;
67867;SDS011;54672;46.096;14.470;2022-07-17T08:55:02;5.63;;;1.60;;
67867;SDS011;54672;46.096;14.470;2022-07-17T08:57:28;2.38;;;1.50;;
67867;SDS011;54672;46.096;14.470;2022-07-17T08:59:54;3.70;;;1.60;;
67867;SDS011;54672;46.096;14.470;2022-07-17T09:02:20;2.35;;;1.70;;
67867;SDS011;54672;46.096;14.470;2022-07-17T09:10:38;3.00;;;1.70;;
67867;SDS011;54672;46.096;14.470;2022-07-17T09:16:10;2.03;;;1.60;;
67867;SDS011;54672;46.096;14.470;2022-07-17T09:21:24;1.67;;;1.48;;
67867;SDS011;54672;46.096;14.470;2022-07-17T09:24:05;2.28;;;1.45;;
67867;SDS011;54672;46.096;14.470;2022-07-17T09:26:34;3.42;;;1.60;;
67867;SDS011;54672;46.096;14.470;2022-07-17T09:29:02;2.08;;;1.50;;
67867;SDS011;54672;46.096;14.470;2022-07-17T09:31:30;2.55;;;1.50;;
67867;SDS011;54672;46.096;14.470;2022-07-17T09:33:56;1.55;;;1.30;;
67867;SDS011;54672;46.096;14.470;2022-07-17T09:36:22;2.72;;;1.80;;
67867;SDS011;54672;46.096;14.470;2022-07-17T09:38:49;2.50;;;1.63;;
67867;SDS011;54672;46.096;14.470;2022-07-17T09:41:18;2.17;;;1.50;;
67867;SDS011;54672;46.096;14.470;2022-07-17T09:46:26;2.80;;;1.38;;
67867;SDS011;54672;46.096;14.470;2022-07-17T09:48:57;1.90;;;1.55;;
67867;SDS011;54672;46.096;14.470;2022-07-17T09:51:25;1.67;;;1.30;;
67867;SDS011;54672;46.096;14.470;2022-07-17T09:53:53;9.82;;;1.80;;
67867;SDS011;54672;46.096;14.470;2022-07-17T09:56:21;1.50;;;1.23;;
67867;SDS011;54672;46.096;14.470;2022-07-17T09:58:49;5.60;;;1.80;;
67867;SDS011;54672;46.096;14.470;2022-07-17T10:01:19;2.28;;;1.70;;
67867;SDS011;54672;46.096;14.470;2022-07-17T10:03:45;2.20;;;1.50;;
67867;SDS011;54672;46.096;14.470;2022-07-17T10:06:13;1.83;;;1.63;;
67867;SDS011;54672;46.096;14.470;2022-07-17T10:08:39;2.30;;;1.60;;
67867;SDS011;54672;46.096;14.470;2022-07-17T10:11:08;2.40;;;1.50;;
67867;SDS011;54672;46.096;14.470;2022-07-17T10:13:40;3.00;;;1.67;;
67867;SDS011;54672;46.096;14.470;2022-07-17T10:16:08;2.65;;;1.70;;
67867;SDS011;54672;46.096;14.470;2022-07-17T10:18:38;4.78;;;2.20;;
67867;SDS011;54672;46.096;14.470;2022-07-17T10:21:15;2.72;;;2.33;;
67867;SDS011;54672;46.096;14.470;2022-07-17T10:23:47;3.58;;;1.70;;
67867;SDS011;54672;46.096;14.470;2022-07-17T10:26:15;2.35;;;1.42;;
67867;SDS011;54672;46.096;14.470;2022-07-17T10:28:45;3.65;;;1.60;;
67867;SDS011;54672;46.096;14.470;2022-07-17T10:31:28;2.08;;;1.73;;
67867;SDS011;54672;46.096;14.470;2022-07-17T10:36:37;2.03;;;1.33;;
67867;SDS011;54672;46.096;14.470;2022-07-17T10:39:17;1.60;;;1.30;;
67867;SDS011;54672;46.096;14.470;2022-07-17T10:41:58;2.20;;;1.40;;
67867;SDS011;54672;46.096;14.470;2022-07-17T10:44:30;2.03;;;1.50;;
67867;SDS011;54672;46.096;14.470;2022-07-17T10:46:57;3.22;;;1.70;;
67867;SDS011;54672;46.096;14.470;2022-07-17T10:49:23;2.15;;;1.40;;
67867;SDS011;54672;46.096;14.470;2022-07-17T10:51:50;1.65;;;1.40;;
67867;SDS011;54672;46.096;14.470;2022-07-17T10:54:16;2.38;;;1.42;;
67867;SDS011;54672;46.096;14.470;2022-07-17T10:56:42;2.65;;;1.60;;
67867;SDS011;54672;46.096;14.470;2022-07-17T10:59:11;3.20;;;1.80;;
67867;SDS011;54672;46.096;14.470;2022-07-17T11:01:37;2.45;;;1.60;;
67867;SDS011;54672;46.096;14.470;2022-07-17T11:04:03;2.97;;;1.80;;
67867;SDS011;54672;46.096;14.470;2022-07-17T11:06:36;2.17;;;1.63;;
67867;SDS011;54672;46.096;14.470;2022-07-17T11:09:06;3.13;;;1.60;;
67867;SDS011;54672;46.096;14.470;2022-07-17T11:14:07;1.98;;;1.60;;
67867;SDS011;54672;46.096;14.470;2022-07-17T11:16:34;3.22;;;2.55;;
67867;SDS011;54672;46.096;14.470;2022-07-17T11:18:59;2.60;;;1.50;;
67867;SDS011;54672;46.096;14.470;2022-07-17T11:21:25;3.33;;;1.65;;
67867;SDS011;54672;46.096;14.470;2022-07-17T11:23:51;3.22;;;1.60;;
67867;SDS011;54672;46.096;14.470;2022-07-17T11:26:18;3.53;;;1.50;;
67867;SDS011;54672;46.096;14.470;2022-07-17T11:28:45;2.53;;;1.48;;
67867;SDS011;54672;46.096;14.470;2022-07-17T11:31:16;2.38;;;1.90;;
67867;SDS011;54672;46.096;14.470;2022-07-17T11:33:47;4.15;;;1.83;;
67867;SDS011;54672;46.096;14.470;2022-07-17T11:36:19;3.85;;;1.67;;
67867;SDS011;54672;46.096;14.470;2022-07-17T11:38:49;2.42;;;1.60;;
67867;SDS011;54672;46.096;14.470;2022-07-17T11:41:17;4.03;;;1.70;;
67867;SDS011;54672;46.096;14.470;2022-07-17T11:43:44;2.53;;;1.55;;
67867;SDS011;54672;46.096;14.470;2022-07-17T11:46:10;3.10;;;1.63;;
67867;SDS011;54672;46.096;14.470;2022-07-17T11:48:35;2.60;;;1.80;;
67867;SDS011;54672;46.096;14.470;2022-07-17T11:51:01;1.80;;;1.40;;
67867;SDS011;54672;46.096;14.470;2022-07-17T11:53:33;1.90;;;1.52;;
67867;SDS011;54672;46.096;14.470;2022-07-17T11:56:00;4.03;;;1.92;;
67867;SDS011;54672;46.096;14.470;2022-07-17T11:58:25;2.58;;;1.40;;
67867;SDS011;54672;46.096;14.470;2022-07-17T12:01:01;2.33;;;1.50;;
67867;SDS011;54672;46.096;14.470;2022-07-17T12:03:30;2.63;;;1.42;;
67867;SDS011;54672;46.096;14.470;2022-07-17T12:05:56;2.25;;;1.60;;
67867;SDS011;54672;46.096;14.470;2022-07-17T12:08:22;2.13;;;1.80;;
67867;SDS011;54672;46.096;14.470;2022-07-17T12:10:47;2.45;;;1.70;;
67867;SDS011;54672;46.096;14.470;2022-07-17T12:13:13;2.42;;;1.70;;
67867;SDS011;54672;46.096;14.470;2022-07-17T12:15:46;2.88;;;1.70;;
67867;SDS011;54672;46.096;14.470;2022-07-17T12:18:21;2.92;;;1.58;;
67867;SDS011;54672;46.096;14.470;2022-07-17T12:20:47;2.97;;;1.95;;
67867;SDS011;54672;46.096;14.470;2022-07-17T12:26:07;2.15;;;1.65;;
67867;SDS011;54672;46.096;14.470;2022-07-17T12:28:33;2.67;;;1.40;;
67867;SDS011;54672;46.096;14.470;2022-07-17T12:30:59;5.53;;;1.67;;
67867;SDS011;54672;46.096;14.470;2022-07-17T12:33:25;4.45;;;2.15;;
67867;SDS011;54672;46.096;14.470;2022-07-17T12:35:50;1.92;;;1.50;;
67867;SDS011;54672;46.096;14.470;2022-07-17T12:38:16;3.00;;;1.90;;
67867;SDS011;54672;46.096;14.470;2022-07-17T12:40:41;3.05;;;1.95;;
67867;SDS011;54672;46.096;14.470;2022-07-17T12:43:07;2.10;;;1.67;;
67867;SDS011;54672;46.096;14.470;2022-07-17T12:45:33;3.60;;;1.98;;
67867;SDS011;54672;46.096;14.470;2022-07-17T12:47:59;5.18;;;1.80;;
67867;SDS011;54672;46.096;14.470;2022-07-17T12:50:25;2.70;;;1.80;;
67867;SDS011;54672;46.096;14.470;2022-07-17T12:52:50;3.45;;;1.85;;
67867;SDS011;54672;46.096;14.470;2022-07-17T12:55:16;2.88;;;1.90;;
67867;SDS011;54672;46.096;14.470;2022-07-17T12:57:42;3.75;;;2.00;;
67867;SDS011;54672;46.096;14.470;2022-07-17T13:00:08;2.55;;;1.90;;
67867;SDS011;54672;46.096;14.470;2022-07-17T13:02:34;2.95;;;2.00;;
67867;SDS011;54672;46.096;14.470;2022-07-17T13:05:00;4.43;;;1.98;;
67867;SDS011;54672;46.096;14.470;2022-07-17T13:07:26;2.78;;;1.80;;
67867;SDS011;54672;46.096;14.470;2022-07-17T13:09:51;2.45;;;1.90;;
67867;SDS011;54672;46.096;14.470;2022-07-17T13:12:17;3.03;;;1.98;;
67867;SDS011;54672;46.096;14.470;2022-07-17T13:14:42;3.45;;;1.98;;
67867;SDS011;54672;46.096;14.470;2022-07-17T13:17:07;4.00;;;1.90;;
67867;SDS011;54672;46.096;14.470;2022-07-17T13:19:33;2.92;;;1.92;;
67867;SDS011;54672;46.096;14.470;2022-07-17T13:22:00;4.68;;;2.03;;
67867;SDS011;54672;46.096;14.470;2022-07-17T13:24:26;2.35;;;1.83;;
67867;SDS011;54672;46.096;14.470;2022-07-17T13:26:52;2.88;;;1.90;;
67867;SDS011;54672;46.096;14.470;2022-07-17T13:29:17;2.67;;;2.10;;
67867;SDS011;54672;46.096;14.470;2022-07-17T13:31:43;2.70;;;2.15;;
67867;SDS011;54672;46.096;14.470;2022-07-17T13:34:08;3.67;;;1.90;;
67867;SDS011;54672;46.096;14.470;2022-07-17T13:36:34;3.20;;;2.03;;
67867;SDS011;54672;46.096;14.470;2022-07-17T13:38:59;3.20;;;2.00;;
67867;SDS011;54672;46.096;14.470;2022-07-17T13:41:24;4.32;;;2.03;;
67867;SDS011;54672;46.096;14.470;2022-07-17T13:43:50;2.80;;;1.83;;
67867;SDS011;54672;46.096;14.470;2022-07-17T13:46:16;2.78;;;1.90;;
67867;SDS011;54672;46.096;14.470;2022-07-17T13:48:41;2.45;;;1.90;;
67867;SDS011;54672;46.096;14.470;2022-07-17T13:51:07;3.97;;;2.28;;
67867;SDS011;54672;46.096;14.470;2022-07-17T13:53:32;2.88;;;2.20;;
67867;SDS011;54672;46.096;14.470;2022-07-17T13:55:58;3.40;;;2.47;;
67867;SDS011;54672;46.096;14.470;2022-07-17T13:58:23;3.75;;;2.40;;
67867;SDS011;54672;46.096;14.470;2022-07-17T14:00:49;2.67;;;2.00;;
67867;SDS011;54672;46.096;14.470;2022-07-17T14:03:15;2.80;;;2.17;;
67867;SDS011;54672;46.096;14.470;2022-07-17T14:05:40;4.65;;;2.20;;
67867;SDS011;54672;46.096;14.470;2022-07-17T14:08:06;3.00;;;2.20;;
67867;SDS011;54672;46.096;14.470;2022-07-17T14:10:31;3.70;;;2.20;;
67867;SDS011;54672;46.096;14.470;2022-07-17T14:12:57;2.35;;;2.00;;
67867;SDS011;54672;46.096;14.470;2022-07-17T14:15:23;2.40;;;1.75;;
67867;SDS011;54672;46.096;14.470;2022-07-17T14:17:48;2.45;;;2.05;;
67867;SDS011;54672;46.096;14.470;2022-07-17T14:20:13;2.47;;;2.00;;
67867;SDS011;54672;46.096;14.470;2022-07-17T14:22:39;3.05;;;2.20;;
67867;SDS011;54672;46.096;14.470;2022-07-17T14:25:04;2.53;;;2.13;;
67867;SDS011;54672;46.096;14.470;2022-07-17T14:27:30;3.20;;;2.17;;
67867;SDS011;54672;46.096;14.470;2022-07-17T14:29:56;3.42;;;1.83;;
67867;SDS011;54672;46.096;14.470;2022-07-17T14:32:21;2.67;;;1.90;;
67867;SDS011;54672;46.096;14.470;2022-07-17T14:34:47;2.72;;;1.90;;
67867;SDS011;54672;46.096;14.470;2022-07-17T14:37:12;3.33;;;2.15;;
67867;SDS011;54672;46.096;14.470;2022-07-17T14:39:38;2.85;;;1.90;;
67867;SDS011;54672;46.096;14.470;2022-07-17T14:42:03;2.90;;;2.10;;
67867;SDS011;54672;46.096;14.470;2022-07-17T14:44:28;3.50;;;2.13;;
67867;SDS011;54672;46.096;14.470;2022-07-17T14:46:56;3.00;;;2.10;;
67867;SDS011;54672;46.096;14.470;2022-07-17T14:49:23;3.88;;;2.03;;
67867;SDS011;54672;46.096;14.470;2022-07-17T14:51:48;3.25;;;2.00;;
67867;SDS011;54672;46.096;14.470;2022-07-17T14:54:14;2.45;;;1.83;;